Time;durP1;ratioP1;P1;durP2;ratioP2;P2;SDS_P1;SDS_P2;PMS_P1;PMS_P2;Temp;Humidity;BMP_temperature;BMP_pressure;BME280_temperature;BME280_humidity;BME280_pressure;Samples;Min_cycle;Max_cycle;Signal;HPM_P1;HPM_P2
2022/06/08 00:00:31;;;;;;;6.60;5.60;;;16.10;99.90;;;;;;12182113;29;20052;-83
2022/06/08 00:06:33;;;;;;;7.30;5.82;;;16.00;99.90;;;;;;12162832;29;20056;-84
2022/06/08 00:12:35;;;;;;;7.68;6.15;;;15.90;99.90;;;;;;12195461;29;20151;-84
2022/06/08 00:18:39;;;;;;;9.85;7.15;;;15.90;99.90;;;;;;12177266;29;20103;-84
2022/06/08 00:24:40;;;;;;;;;;;16.00;99.90;;;;;;12180574;29;20127;-84
2022/06/08 00:30:42;;;;;;;8.05;6.97;;;16.00;99.90;;;;;;12220880;29;19935;-84
2022/06/08 00:36:44;;;;;;;8.32;7.43;;;15.90;99.90;;;;;;12210242;29;20188;-84
2022/06/08 00:42:47;;;;;;;10.38;7.93;;;15.90;99.90;;;;;;12169440;29;20139;-84
2022/06/08 00:49:01;;;;;;;9.37;8.30;;;15.90;99.90;;;;;;12190366;29;20497;-84
2022/06/08 00:55:06;;;;;;;10.15;8.70;;;15.90;99.90;;;;;;12178161;29;20184;-83
2022/06/08 01:01:09;;;;;;;11.15;8.05;;;16.10;99.90;;;;;;12170664;29;20445;-84
2022/06/08 01:07:19;;;;;;;11.00;9.38;;;16.10;99.90;;;;;;12180489;29;20110;-84
2022/06/08 01:13:22;;;;;;;9.98;8.98;;;16.10;99.90;;;;;;12180555;29;20048;-84
2022/06/08 01:19:24;;;;;;;13.00;10.45;;;16.20;99.90;;;;;;12198528;29;20166;-83
2022/06/08 01:25:33;;;;;;;12.02;9.98;;;16.10;99.90;;;;;;12181723;29;20048;-84
2022/06/08 01:31:57;;;;;;;11.10;9.95;;;16.10;99.90;;;;;;12187277;29;20056;-84
2022/06/08 01:38:29;;;;;;;13.18;10.85;;;16.10;99.90;;;;;;12201646;29;20056;-84
2022/06/08 01:51:58;;;;;;;12.02;10.77;;;15.90;99.90;;;;;;12191601;29;21905;-84
2022/06/08 01:58:03;;;;;;;13.45;11.57;;;15.90;99.90;;;;;;12210581;29;20406;-84
2022/06/08 02:04:30;;;;;;;13.43;11.73;;;15.90;99.90;;;;;;12186291;29;20052;-84
2022/06/08 02:10:57;;;;;;;14.07;11.95;;;15.80;99.90;;;;;;12186251;29;20084;-84
2022/06/08 02:17:08;;;;;;;15.43;11.93;;;15.90;99.90;;;;;;12208444;29;20496;-84
2022/06/08 02:23:15;;;;;;;14.75;11.98;;;15.90;99.90;;;;;;12185569;29;20524;-84
2022/06/08 02:29:22;;;;;;;15.27;13.18;;;16.00;99.90;;;;;;12208429;29;20060;-84
2022/06/08 02:35:31;;;;;;;15.05;12.43;;;16.00;99.90;;;;;;12188799;29;20520;-84
2022/06/08 02:41:36;;;;;;;18.52;15.00;;;16.00;99.90;;;;;;12193471;29;20143;-84
2022/06/08 02:47:40;;;;;;;16.08;13.75;;;16.00;99.90;;;;;;12203494;29;20118;-84
2022/06/08 02:53:50;;;;;;;20.67;15.70;;;16.10;99.90;;;;;;12201976;29;20040;-84
2022/06/08 03:00:13;;;;;;;18.92;16.42;;;16.00;99.90;;;;;;12233162;29;20139;-84
2022/06/08 03:06:31;;;;;;;19.83;15.98;;;16.00;99.90;;;;;;12213880;29;20553;-84
2022/06/08 03:12:36;;;;;;;18.15;15.60;;;16.00;99.90;;;;;;12202920;29;20591;-84
2022/06/08 03:18:38;;;;;;;18.63;15.75;;;16.10;99.90;;;;;;12208181;29;20087;-84
2022/06/08 03:24:41;;;;;;;18.45;15.23;;;16.10;99.90;;;;;;12182896;29;20564;-83
2022/06/08 03:30:48;;;;;;;15.05;13.32;;;16.00;99.90;;;;;;12200973;29;20389;-84
2022/06/08 03:36:50;;;;;;;15.63;13.85;;;15.90;99.90;;;;;;12199295;29;20139;-84
2022/06/08 03:42:51;;;;;;;15.55;13.90;;;15.90;99.90;;;;;;12192000;29;20119;-84
2022/06/08 03:48:56;;;;;;;15.15;12.77;;;16.00;99.90;;;;;;12200269;29;20067;-83
2022/06/08 03:55:01;;;;;;;15.45;13.68;;;16.00;99.90;;;;;;12194574;29;20044;-83
2022/06/08 04:01:03;;;;;;;14.45;12.80;;;16.00;99.90;;;;;;12184507;29;20068;-84
2022/06/08 04:07:07;;;;;;;13.88;12.02;;;15.90;99.90;;;;;;12182976;29;20093;-83
2022/06/08 04:13:09;;;;;;;19.35;14.15;;;16.00;99.90;;;;;;12187682;29;20469;-84
2022/06/08 04:19:11;;;;;;;18.33;14.13;;;16.00;99.90;;;;;;12174675;29;20143;-84
2022/06/08 04:25:14;;;;;;;19.67;14.88;;;16.00;99.90;;;;;;12184192;29;20160;-84
2022/06/08 04:31:16;;;;;;;20.02;13.75;;;16.10;99.90;;;;;;12186369;29;20188;-83
2022/06/08 04:37:18;;;;;;;24.33;16.92;;;16.10;99.90;;;;;;12196631;29;20575;-84
2022/06/08 04:43:20;;;;;;;25.88;18.83;;;16.20;99.90;;;;;;12186622;29;20397;-84
2022/06/08 04:49:22;;;;;;;24.50;18.98;;;16.10;99.90;;;;;;12189512;29;20143;-83
2022/06/08 04:55:24;;;;;;;28.75;20.58;;;16.10;99.90;;;;;;12192075;29;20044;-85
2022/06/08 05:01:26;;;;;;;30.00;21.02;;;16.20;99.90;;;;;;12188242;29;20063;-85
2022/06/08 05:07:28;;;;;;;30.67;23.25;;;16.20;99.90;;;;;;12219920;29;20392;-85
2022/06/08 05:13:30;;;;;;;30.05;22.85;;;16.10;99.90;;;;;;12201272;29;20051;-84
2022/06/08 05:19:32;;;;;;;31.83;23.95;;;16.10;99.90;;;;;;12208356;29;20060;-85
2022/06/08 05:25:37;;;;;;;34.38;25.25;;;15.80;99.90;;;;;;12211993;29;20394;-84
2022/06/08 05:31:39;;;;;;;36.25;26.23;;;15.80;99.90;;;;;;12220840;29;20050;-84
2022/06/08 05:37:41;;;;;;;33.70;24.58;;;15.80;99.90;;;;;;12213924;29;20517;-83
2022/06/08 05:43:43;;;;;;;34.22;23.65;;;15.80;99.90;;;;;;12198249;29;20142;-84
2022/06/08 05:49:45;;;;;;;31.73;23.55;;;15.80;99.90;;;;;;12202358;29;20063;-85
2022/06/08 05:55:47;;;;;;;32.20;24.25;;;15.90;99.90;;;;;;12198311;29;20634;-85
2022/06/08 06:01:48;;;;;;;29.67;22.55;;;16.00;99.90;;;;;;12215892;29;20452;-83
2022/06/08 06:07:51;;;;;;;30.80;23.33;;;16.00;99.90;;;;;;12196208;29;20063;-83
2022/06/08 06:13:52;;;;;;;32.45;23.92;;;16.00;99.90;;;;;;12198411;29;20134;-83
2022/06/08 06:19:55;;;;;;;27.85;21.58;;;15.90;99.90;;;;;;12222390;29;20056;-84
2022/06/08 06:25:57;;;;;;;20.05;16.52;;;16.20;99.90;;;;;;12192255;29;20075;-84
2022/06/08 06:32:03;;;;;;;15.05;12.93;;;16.50;99.90;;;;;;12195534;29;20048;-84
2022/06/08 06:38:05;;;;;;;13.93;11.55;;;16.70;99.90;;;;;;12188080;29;20508;-85
2022/06/08 06:44:07;;;;;;;12.40;9.35;;;17.10;99.90;;;;;;12206552;29;20147;-84
2022/06/08 06:50:13;;;;;;;11.82;8.82;;;17.30;99.90;;;;;;12184342;29;20111;-85
2022/06/08 06:56:15;;;;;;;10.05;8.25;;;17.50;99.90;;;;;;12182678;29;20040;-84
2022/06/08 07:02:20;;;;;;;7.47;6.53;;;17.60;99.90;;;;;;12201999;29;20071;-85
2022/06/08 07:08:23;;;;;;;9.45;5.47;;;17.70;99.90;;;;;;12201997;29;20070;-86
2022/06/08 07:14:25;;;;;;;8.10;5.63;;;17.80;99.90;;;;;;12248834;29;20072;-86
2022/06/08 07:20:26;;;;;;;8.32;6.32;;;18.00;99.90;;;;;;12199321;29;20123;-84
2022/06/08 07:26:28;;;;;;;9.68;5.68;;;18.00;99.90;;;;;;12204764;29;20051;-84
2022/06/08 07:32:30;;;;;;;7.40;5.47;;;17.80;99.90;;;;;;12181883;29;20143;-85
2022/06/08 07:38:33;;;;;;;6.03;4.90;;;17.90;99.90;;;;;;12197276;29;20138;-84
2022/06/08 07:44:35;;;;;;;5.40;4.10;;;17.90;99.90;;;;;;12197459;29;20140;-85
2022/06/08 07:50:37;;;;;;;5.68;3.38;;;17.80;99.90;;;;;;12177880;29;20468;-84
2022/06/08 07:56:38;;;;;;;5.65;4.40;;;17.80;99.90;;;;;;12189188;29;20052;-86
2022/06/08 08:02:41;;;;;;;7.15;3.53;;;18.00;99.90;;;;;;12183898;29;20063;-85
2022/06/08 08:08:43;;;;;;;6.00;4.13;;;18.20;99.90;;;;;;12179298;29;20093;-86
2022/06/08 08:14:46;;;;;;;6.13;4.50;;;18.40;99.90;;;;;;12188906;29;20517;-85
2022/06/08 08:20:48;;;;;;;3.38;2.50;;;18.40;99.90;;;;;;12205229;29;20563;-85
2022/06/08 08:26:51;;;;;;;4.43;2.80;;;18.70;99.90;;;;;;12179341;29;20056;-86
2022/06/08 08:32:53;;;;;;;4.40;2.47;;;18.80;99.90;;;;;;12182938;29;20186;-85
2022/06/08 08:38:55;;;;;;;5.18;2.90;;;18.80;99.90;;;;;;12191328;29;20091;-85
2022/06/08 08:45:02;;;;;;;3.22;1.67;;;18.70;99.90;;;;;;12174996;29;20088;-87
2022/06/08 08:51:14;;;;;;;2.92;1.70;;;18.80;99.90;;;;;;12201584;29;20181;-85
2022/06/08 08:57:28;;;;;;;5.18;2.47;;;19.00;99.90;;;;;;12195053;29;20059;-85
2022/06/08 09:03:41;;;;;;;5.20;1.80;;;19.20;99.90;;;;;;12195735;29;20076;-86
2022/06/08 09:09:43;;;;;;;2.72;1.58;;;19.60;99.90;;;;;;12184052;29;20067;-85
2022/06/08 09:15:49;;;;;;;3.70;1.77;;;19.70;99.90;;;;;;12202104;29;20123;-86
2022/06/08 09:22:03;;;;;;;3.90;1.25;;;20.00;99.90;;;;;;12218101;29;20051;-86
2022/06/08 09:28:24;;;;;;;1.83;1.42;;;20.20;99.90;;;;;;12238671;28;20059;-87
2022/06/08 09:34:33;;;;;;;2.47;1.38;;;20.40;99.90;;;;;;12216253;29;20048;-85
2022/06/08 09:40:44;;;;;;;3.10;1.63;;;20.30;99.90;;;;;;12203407;29;20061;-86
2022/06/08 09:53:50;;;;;;;2.53;1.27;;;20.40;99.90;;;;;;12192500;29;20044;-85
2022/06/08 10:00:27;;;;;;;1.65;0.90;;;20.90;99.90;;;;;;12181859;29;20172;-85
2022/06/08 10:06:40;;;;;;;2.10;1.10;;;21.60;99.90;;;;;;12177532;29;20131;-87
2022/06/08 10:12:51;;;;;;;2.72;1.10;;;21.90;99.90;;;;;;12188192;29;20040;-88
2022/06/08 10:19:01;;;;;;;2.80;1.20;;;21.70;99.90;;;;;;12210262;29;20136;-86
2022/06/08 10:25:40;;;;;;;2.05;1.10;;;21.80;99.90;;;;;;12190498;29;20063;-86
2022/06/08 10:32:16;;;;;;;1.40;1.02;;;21.70;99.90;;;;;;12173911;29;20052;-86
2022/06/08 10:38:27;;;;;;;1.58;0.90;;;21.70;99.90;;;;;;12198011;29;20048;-86
2022/06/08 10:44:44;;;;;;;2.60;0.90;;;22.10;99.90;;;;;;12188495;29;20052;-87
2022/06/08 10:50:48;;;;;;;1.15;0.80;;;22.20;99.90;;;;;;12196063;29;20067;-86
2022/06/08 10:56:54;;;;;;;2.35;0.82;;;21.80;99.90;;;;;;12198899;29;20626;-86
2022/06/08 11:03:01;;;;;;;1.67;0.93;;;21.40;99.90;;;;;;12193696;29;20127;-86
2022/06/08 11:09:03;;;;;;;1.48;0.80;;;20.90;99.90;;;;;;12190306;29;20067;-85
2022/06/08 11:15:25;;;;;;;2.28;0.70;;;21.10;99.90;;;;;;12187117;29;20052;-86
2022/06/08 11:21:45;;;;;;;1.33;0.68;;;21.10;99.90;;;;;;12210684;29;20119;-86
2022/06/08 11:28:25;;;;;;;2.10;0.80;;;21.20;99.90;;;;;;12208602;29;20115;-86
2022/06/08 11:35:01;;;;;;;1.50;0.65;;;21.20;99.90;;;;;;12196984;29;20496;-86
2022/06/08 11:41:24;;;;;;;2.83;0.80;;;20.90;99.90;;;;;;12218813;28;20134;-86
2022/06/08 11:47:36;;;;;;;1.45;0.60;;;20.70;99.90;;;;;;12188075;29;20056;-87
2022/06/08 11:53:40;;;;;;;3.63;0.73;;;20.70;99.90;;;;;;12180041;29;20479;-86
2022/06/08 11:59:44;;;;;;;2.72;0.70;;;20.70;99.90;;;;;;12202413;29;20083;-87
2022/06/08 12:05:51;;;;;;;1.80;0.60;;;20.90;99.90;;;;;;12185086;29;20044;-86
2022/06/08 12:12:24;;;;;;;1.60;0.63;;;20.80;99.90;;;;;;12191338;29;20059;-85
2022/06/08 12:18:42;;;;;;;2.33;0.80;;;20.80;99.90;;;;;;12204632;29;20190;-87
2022/06/08 12:25:08;;;;;;;2.53;0.80;;;20.80;99.90;;;;;;12182018;29;20859;-87
2022/06/08 12:31:25;;;;;;;2.40;0.90;;;21.00;99.90;;;;;;12191137;29;20064;-86
2022/06/08 12:37:28;;;;;;;2.65;1.00;;;21.30;99.90;;;;;;12197673;29;20142;-87
2022/06/08 12:43:52;;;;;;;1.97;1.00;;;21.00;99.90;;;;;;12176238;29;20110;-87
2022/06/08 12:50:13;;;;;;;1.77;0.90;;;20.90;99.90;;;;;;12178484;29;20048;-86
2022/06/08 12:56:17;;;;;;;3.65;1.20;;;20.60;99.90;;;;;;12176453;29;20048;-86
2022/06/08 13:02:27;;;;;;;5.53;1.50;;;20.60;99.90;;;;;;12202850;29;20048;-87
2022/06/08 13:08:29;;;;;;;4.85;1.38;;;20.40;99.90;;;;;;12195237;29;20059;-85
2022/06/08 13:14:32;;;;;;;6.63;1.88;;;20.40;99.90;;;;;;12216582;29;20120;-84
2022/06/08 13:20:37;;;;;;;3.95;1.88;;;19.90;99.90;;;;;;12205347;29;20105;-83
2022/06/08 13:26:41;;;;;;;2.60;1.60;;;19.30;99.90;;;;;;12199711;29;20509;-83
2022/06/08 13:32:43;;;;;;;2.92;1.67;;;18.70;99.90;;;;;;12198362;29;20056;-83
2022/06/08 13:38:46;;;;;;;2.70;1.35;;;18.70;99.90;;;;;;12180625;29;20060;-84
2022/06/08 13:44:54;;;;;;;3.67;1.37;;;18.90;99.90;;;;;;12178914;29;20067;-83
2022/06/08 13:50:56;;;;;;;3.22;1.52;;;19.10;99.90;;;;;;12206550;29;20052;-83
2022/06/08 13:56:59;;;;;;;4.03;1.67;;;19.20;99.90;;;;;;12207767;29;20127;-83
2022/06/08 14:03:03;;;;;;;;;;;19.20;99.90;;;;;;12203221;29;20147;-83
2022/06/08 14:16:01;;;;;;;4.20;1.10;;;19.20;99.90;;;;;;12207330;29;20044;-84
2022/06/08 14:22:06;;;;;;;2.97;1.60;;;19.40;99.90;;;;;;12206396;29;20083;-84
2022/06/08 14:28:08;;;;;;;2.90;1.00;;;19.60;99.90;;;;;;12192160;29;20056;-84
2022/06/08 14:34:20;;;;;;;4.47;1.40;;;19.90;99.90;;;;;;12185396;29;20060;-85
2022/06/08 14:40:25;;;;;;;3.47;0.80;;;20.00;99.90;;;;;;12189604;29;20056;-84
2022/06/08 14:46:27;;;;;;;2.53;1.13;;;20.10;99.90;;;;;;12184175;29;20131;-84
2022/06/08 14:52:29;;;;;;;2.78;1.08;;;20.30;99.90;;;;;;12181006;29;20531;-85
2022/06/08 14:58:31;;;;;;;7.18;2.05;;;20.30;99.90;;;;;;12196922;29;20456;-85
2022/06/08 15:04:32;;;;;;;5.35;1.20;;;20.00;99.90;;;;;;12192632;29;20111;-85
2022/06/08 15:11:57;;;;;;;6.93;1.55;;;19.10;99.90;;;;;;12183670;29;20111;-88
2022/06/08 15:16:56;;;;;;;6.93;1.60;;;18.10;99.90;;;;;;12202256;29;20133;-88
2022/06/08 15:23:00;;;;;;;5.10;1.65;;;17.70;99.90;;;;;;12209889;29;20509;-83
2022/06/08 15:29:14;;;;;;;4.72;1.83;;;17.20;99.90;;;;;;12204417;29;20071;-85
2022/06/08 15:35:19;;;;;;;5.90;1.85;;;16.80;99.90;;;;;;12198865;29;20048;-82
2022/06/08 15:41:23;;;;;;;5.60;1.67;;;16.60;99.90;;;;;;12192174;29;20051;-85
2022/06/08 15:47:28;;;;;;;;;;;16.70;99.90;;;;;;12221357;29;20116;-83
2022/06/08 15:53:36;;;;;;;5.00;2.05;;;16.80;99.90;;;;;;12183446;29;19930;-83
2022/06/08 15:59:44;;;;;;;3.92;1.40;;;17.00;99.90;;;;;;12191548;29;20123;-80
2022/06/08 16:05:47;;;;;;;3.00;1.55;;;16.90;99.90;;;;;;12191636;29;20184;-82
2022/06/08 16:11:48;;;;;;;4.43;1.10;;;17.10;99.90;;;;;;12202918;29;20095;-81
2022/06/08 16:17:51;;;;;;;2.15;0.90;;;17.20;99.90;;;;;;12198244;29;20056;-83
2022/06/08 16:23:52;;;;;;;5.13;1.00;;;17.10;99.90;;;;;;12194119;29;20107;-82
2022/06/08 16:29:54;;;;;;;3.72;1.65;;;17.00;99.90;;;;;;12180002;29;20135;-83
2022/06/08 16:35:56;;;;;;;4.20;1.23;;;17.00;99.90;;;;;;12184507;29;20102;-84
2022/06/08 16:41:58;;;;;;;3.58;1.30;;;16.90;99.90;;;;;;12173873;29;20080;-82
2022/06/08 16:48:00;;;;;;;5.15;1.27;;;16.90;99.90;;;;;;12199378;29;20480;-83
2022/06/08 16:54:03;;;;;;;3.00;1.27;;;16.90;99.90;;;;;;12194969;29;20048;-83
2022/06/08 17:00:06;;;;;;;2.75;1.00;;;16.80;99.90;;;;;;12192511;29;20107;-83
2022/06/08 17:06:08;;;;;;;3.17;1.30;;;16.80;99.90;;;;;;12178853;29;20457;-84
2022/06/08 17:12:12;;;;;;;3.95;1.20;;;16.80;99.90;;;;;;12180609;29;20072;-82
2022/06/08 17:18:14;;;;;;;4.55;1.42;;;16.90;99.90;;;;;;12183704;29;20138;-82
2022/06/08 17:24:15;;;;;;;5.22;1.60;;;16.80;99.90;;;;;;12184574;29;20123;-83
2022/06/08 17:30:18;;;;;;;5.25;1.33;;;16.80;99.90;;;;;;12186689;29;20064;-82
2022/06/08 17:36:20;;;;;;;4.65;1.33;;;16.80;99.90;;;;;;12196521;29;20130;-83
2022/06/08 17:42:22;;;;;;;5.65;1.50;;;16.80;99.90;;;;;;12201236;29;20094;-84
2022/06/08 17:48:26;;;;;;;5.78;2.30;;;16.80;99.90;;;;;;12191006;29;20063;-83
2022/06/08 17:54:28;;;;;;;5.03;1.73;;;16.80;99.90;;;;;;12190626;29;20067;-82
2022/06/08 18:00:30;;;;;;;4.30;1.63;;;16.80;99.90;;;;;;12174425;29;20059;-83
2022/06/08 18:06:32;;;;;;;3.08;1.92;;;16.70;99.90;;;;;;12184080;29;20138;-83
2022/06/08 18:12:36;;;;;;;;;;;16.70;99.90;;;;;;12180430;29;20068;-82
2022/06/08 18:18:39;;;;;;;4.95;2.10;;;16.60;99.90;;;;;;12177790;29;20017;-82
2022/06/08 18:24:42;;;;;;;5.05;2.00;;;16.60;99.90;;;;;;12193366;29;20044;-83
2022/06/08 18:30:45;;;;;;;;;;;16.60;99.90;;;;;;12176728;29;20100;-82
2022/06/08 18:36:47;;;;;;;6.10;2.17;;;16.50;99.90;;;;;;12180458;29;19923;-82
2022/06/08 18:43:00;;;;;;;4.97;2.20;;;16.50;99.90;;;;;;12188152;29;20381;-82
2022/06/08 18:49:09;;;;;;;5.30;2.60;;;16.40;99.90;;;;;;12185487;29;20106;-83
2022/06/08 18:55:14;;;;;;;5.28;2.42;;;16.40;99.90;;;;;;12202420;29;20052;-82
2022/06/08 19:01:19;;;;;;;5.05;2.63;;;16.40;99.90;;;;;;12194791;29;20131;-82
2022/06/08 19:07:21;;;;;;;4.18;2.20;;;16.40;99.90;;;;;;12187720;29;20508;-83
2022/06/08 19:13:22;;;;;;;8.93;2.03;;;16.50;99.90;;;;;;12203306;29;20137;-82
2022/06/08 19:25:48;;;;;;;4.15;2.08;;;16.60;99.90;;;;;;12197014;29;20056;-82
2022/06/08 19:31:51;;;;;;;4.35;1.48;;;16.50;99.90;;;;;;12178271;29;20059;-83
2022/06/08 19:37:53;;;;;;;5.30;1.83;;;16.60;99.90;;;;;;12185941;29;20056;-84
2022/06/08 19:43:56;;;;;;;5.70;1.40;;;16.50;99.90;;;;;;12188415;29;20048;-85
2022/06/08 19:49:59;;;;;;;3.88;1.10;;;16.40;99.90;;;;;;12201408;29;20080;-84
2022/06/08 19:56:03;;;;;;;4.32;1.60;;;16.40;99.90;;;;;;12191625;29;20087;-84
2022/06/08 20:02:04;;;;;;;5.57;1.43;;;16.20;99.90;;;;;;12181966;29;20468;-83
2022/06/08 20:08:08;;;;;;;3.67;1.35;;;16.00;99.90;;;;;;12197091;29;20492;-83
2022/06/08 20:14:10;;;;;;;6.35;1.15;;;15.90;99.90;;;;;;12191570;29;20924;-83
2022/06/08 20:20:14;;;;;;;6.15;1.23;;;15.70;99.90;;;;;;12175923;29;20069;-83
2022/06/08 20:26:16;;;;;;;3.42;1.02;;;15.70;99.90;;;;;;12194663;29;20130;-84
2022/06/08 20:32:17;;;;;;;2.22;1.00;;;15.70;99.90;;;;;;12188012;29;20056;-84
2022/06/08 20:38:19;;;;;;;5.00;1.30;;;15.70;99.90;;;;;;12202251;29;20525;-84
2022/06/08 20:44:23;;;;;;;5.60;1.52;;;15.70;99.90;;;;;;12179913;29;20199;-83
2022/06/08 20:50:28;;;;;;;4.85;1.42;;;15.60;99.90;;;;;;12191227;29;20131;-84
2022/06/08 20:56:30;;;;;;;3.47;1.30;;;15.60;99.90;;;;;;12186975;29;20052;-84
2022/06/08 21:02:32;;;;;;;2.50;1.25;;;15.60;99.90;;;;;;12189639;29;20048;-83
2022/06/08 21:08:34;;;;;;;3.45;1.40;;;15.60;99.90;;;;;;12182452;29;20134;-83
2022/06/08 21:14:43;;;;;;;2.45;1.27;;;15.60;99.90;;;;;;12175893;29;20055;-84
2022/06/08 21:20:52;;;;;;;4.57;1.48;;;15.50;99.90;;;;;;12193646;29;20076;-83
2022/06/08 21:26:54;;;;;;;4.25;1.50;;;15.50;99.90;;;;;;12190997;29;20493;-83
2022/06/08 21:32:56;;;;;;;5.03;1.40;;;15.60;99.90;;;;;;12189568;29;20052;-82
2022/06/08 21:39:00;;;;;;;3.90;1.63;;;15.50;99.90;;;;;;12190809;29;20063;-84
2022/06/08 21:45:03;;;;;;;5.07;2.05;;;15.50;99.90;;;;;;12179077;29;20131;-83
2022/06/08 21:51:06;;;;;;;5.07;2.47;;;15.40;99.90;;;;;;12184439;29;20060;-83
2022/06/08 21:57:07;;;;;;;7.63;2.95;;;15.30;99.90;;;;;;12193484;29;20421;-85
2022/06/08 22:03:14;;;;;;;5.10;3.63;;;15.00;99.90;;;;;;12185131;29;20141;-85
2022/06/08 22:09:18;;;;;;;5.45;2.90;;;14.90;99.90;;;;;;12193468;29;20131;-84
2022/06/08 22:15:23;;;;;;;8.68;3.58;;;15.00;99.90;;;;;;12181744;29;20564;-85
2022/06/08 22:21:26;;;;;;;6.82;3.50;;;15.10;99.90;;;;;;12185881;29;20048;-84
2022/06/08 22:27:29;;;;;;;7.28;3.92;;;14.90;99.90;;;;;;12190140;29;20485;-84
2022/06/08 22:33:31;;;;;;;9.33;5.17;;;14.90;99.90;;;;;;12198502;29;20509;-84
2022/06/08 22:39:33;;;;;;;10.30;5.22;;;14.90;99.90;;;;;;12185660;29;20052;-83
2022/06/08 22:45:36;;;;;;;11.57;6.55;;;14.90;99.90;;;;;;12181891;29;20513;-83
2022/06/08 22:51:38;;;;;;;12.40;8.10;;;14.80;99.90;;;;;;12202140;29;20079;-84
2022/06/08 22:57:40;;;;;;;12.88;9.68;;;14.60;99.90;;;;;;12199130;29;20056;-83
2022/06/08 23:03:42;;;;;;;16.38;9.57;;;14.70;99.90;;;;;;12184290;29;20497;-83
2022/06/08 23:09:44;;;;;;;13.02;9.85;;;14.90;99.90;;;;;;12198394;29;20056;-83
2022/06/08 23:22:07;;;;;;;15.38;10.80;;;14.80;99.90;;;;;;12190562;29;20112;-84
2022/06/08 23:28:12;;;;;;;16.30;11.60;;;14.90;99.90;;;;;;12186311;29;20118;-83
2022/06/08 23:34:15;;;;;;;17.17;11.20;;;14.90;99.90;;;;;;12190224;29;20059;-82
2022/06/08 23:40:17;;;;;;;18.85;11.75;;;15.00;99.90;;;;;;12177475;29;20048;-83
2022/06/08 23:46:19;;;;;;;14.10;10.73;;;15.10;99.90;;;;;;12193037;29;20071;-82
2022/06/08 23:52:21;;;;;;;17.05;12.52;;;15.00;99.90;;;;;;12177789;29;20084;-82
2022/06/08 23:58:22;;;;;;;18.48;12.05;;;15.00;99.90;;;;;;12214470;29;20679;-83
